sensor_id;sensor_type;location;lat;lon;timestamp;P1;durP1;ratioP1;P2;durP2;ratioP2
23362;SDS011;11853;48.080;11.960;2022-11-27T00:00:03;7.10;;;6.40;;
23362;SDS011;11853;48.080;11.960;2022-11-27T00:02:35;11.70;;;9.32;;
23362;SDS011;11853;48.080;11.960;2022-11-27T00:05:00;14.45;;;10.35;;
23362;SDS011;11853;48.080;11.960;2022-11-27T00:07:26;10.82;;;7.90;;
23362;SDS011;11853;48.080;11.960;2022-11-27T00:09:51;8.90;;;8.00;;
23362;SDS011;11853;48.080;11.960;2022-11-27T00:12:17;9.60;;;8.60;;
23362;SDS011;11853;48.080;11.960;2022-11-27T00:14:42;10.30;;;8.50;;
23362;SDS011;11853;48.080;11.960;2022-11-27T00:17:08;9.75;;;8.65;;
23362;SDS011;11853;48.080;11.960;2022-11-27T00:19:33;10.77;;;9.15;;
23362;SDS011;11853;48.080;11.960;2022-11-27T00:21:59;10.60;;;9.15;;
23362;SDS011;11853;48.080;11.960;2022-11-27T00:24:25;9.38;;;8.38;;
23362;SDS011;11853;48.080;11.960;2022-11-27T00:26:50;9.82;;;8.85;;
23362;SDS011;11853;48.080;11.960;2022-11-27T00:29:16;10.55;;;8.65;;
23362;SDS011;11853;48.080;11.960;2022-11-27T00:31:41;11.88;;;9.68;;
23362;SDS011;11853;48.080;11.960;2022-11-27T00:34:07;9.27;;;8.27;;
23362;SDS011;11853;48.080;11.960;2022-11-27T00:36:33;9.38;;;8.35;;
23362;SDS011;11853;48.080;11.960;2022-11-27T00:38:59;9.02;;;7.90;;
23362;SDS011;11853;48.080;11.960;2022-11-27T00:41:27;9.68;;;8.68;;
23362;SDS011;11853;48.080;11.960;2022-11-27T00:43:54;8.10;;;6.78;;
23362;SDS011;11853;48.080;11.960;2022-11-27T00:46:27;8.00;;;7.20;;
23362;SDS011;11853;48.080;11.960;2022-11-27T00:48:54;8.15;;;7.32;;
23362;SDS011;11853;48.080;11.960;2022-11-27T00:51:21;8.45;;;7.55;;
23362;SDS011;11853;48.080;11.960;2022-11-27T00:53:47;7.85;;;7.05;;
23362;SDS011;11853;48.080;11.960;2022-11-27T00:56:14;7.55;;;6.78;;
23362;SDS011;11853;48.080;11.960;2022-11-27T00:58:42;7.43;;;6.72;;
23362;SDS011;11853;48.080;11.960;2022-11-27T01:01:07;7.90;;;7.20;;
23362;SDS011;11853;48.080;11.960;2022-11-27T01:03:39;7.55;;;6.75;;
23362;SDS011;11853;48.080;11.960;2022-11-27T01:06:05;7.63;;;6.93;;
23362;SDS011;11853;48.080;11.960;2022-11-27T01:08:31;8.48;;;7.65;;
23362;SDS011;11853;48.080;11.960;2022-11-27T01:10:58;7.90;;;7.20;;
23362;SDS011;11853;48.080;11.960;2022-11-27T01:13:25;7.72;;;7.03;;
23362;SDS011;11853;48.080;11.960;2022-11-27T01:16:02;7.47;;;6.78;;
23362;SDS011;11853;48.080;11.960;2022-11-27T01:18:31;8.10;;;6.70;;
23362;SDS011;11853;48.080;11.960;2022-11-27T01:20:58;7.50;;;6.80;;
23362;SDS011;11853;48.080;11.960;2022-11-27T01:23:24;7.65;;;6.95;;
23362;SDS011;11853;48.080;11.960;2022-11-27T01:25:49;7.93;;;7.13;;
23362;SDS011;11853;48.080;11.960;2022-11-27T01:28:18;7.07;;;6.28;;
23362;SDS011;11853;48.080;11.960;2022-11-27T01:30:44;7.15;;;6.45;;
23362;SDS011;11853;48.080;11.960;2022-11-27T01:33:09;9.68;;;6.90;;
23362;SDS011;11853;48.080;11.960;2022-11-27T01:35:35;8.43;;;7.38;;
23362;SDS011;11853;48.080;11.960;2022-11-27T01:38:00;8.65;;;7.75;;
23362;SDS011;11853;48.080;11.960;2022-11-27T01:40:26;8.27;;;7.47;;
23362;SDS011;11853;48.080;11.960;2022-11-27T01:42:51;7.93;;;7.22;;
23362;SDS011;11853;48.080;11.960;2022-11-27T01:45:18;8.77;;;7.88;;
23362;SDS011;11853;48.080;11.960;2022-11-27T01:48:07;8.30;;;7.60;;
23362;SDS011;11853;48.080;11.960;2022-11-27T01:50:32;7.20;;;6.53;;
23362;SDS011;11853;48.080;11.960;2022-11-27T01:53:03;7.20;;;6.60;;
23362;SDS011;11853;48.080;11.960;2022-11-27T01:55:36;8.23;;;7.53;;
23362;SDS011;11853;48.080;11.960;2022-11-27T01:58:08;8.07;;;7.22;;
23362;SDS011;11853;48.080;11.960;2022-11-27T02:00:38;8.23;;;7.43;;
23362;SDS011;11853;48.080;11.960;2022-11-27T02:03:04;8.40;;;7.60;;
23362;SDS011;11853;48.080;11.960;2022-11-27T02:05:31;8.30;;;7.50;;
23362;SDS011;11853;48.080;11.960;2022-11-27T02:07:58;8.85;;;7.95;;
23362;SDS011;11853;48.080;11.960;2022-11-27T02:10:35;8.70;;;7.90;;
23362;SDS011;11853;48.080;11.960;2022-11-27T02:13:26;8.32;;;7.53;;
23362;SDS011;11853;48.080;11.960;2022-11-27T02:16:23;8.70;;;7.82;;
23362;SDS011;11853;48.080;11.960;2022-11-27T02:21:38;9.93;;;8.50;;
23362;SDS011;11853;48.080;11.960;2022-11-27T02:24:41;8.45;;;7.65;;
23362;SDS011;11853;48.080;11.960;2022-11-27T02:30:11;7.35;;;6.65;;
23362;SDS011;11853;48.080;11.960;2022-11-27T02:37:52;8.60;;;7.40;;
23362;SDS011;11853;48.080;11.960;2022-11-27T02:43:14;7.78;;;7.07;;
23362;SDS011;11853;48.080;11.960;2022-11-27T02:46:07;6.57;;;6.07;;
23362;SDS011;11853;48.080;11.960;2022-11-27T02:49:17;7.40;;;6.70;;
23362;SDS011;11853;48.080;11.960;2022-11-27T02:51:29;7.38;;;6.68;;
23362;SDS011;11853;48.080;11.960;2022-11-27T02:54:07;7.60;;;6.90;;
23362;SDS011;11853;48.080;11.960;2022-11-27T02:56:37;7.83;;;7.13;;
23362;SDS011;11853;48.080;11.960;2022-11-27T02:59:07;7.60;;;6.90;;
23362;SDS011;11853;48.080;11.960;2022-11-27T03:01:50;7.88;;;7.10;;
23362;SDS011;11853;48.080;11.960;2022-11-27T03:06:53;8.05;;;7.28;;
23362;SDS011;11853;48.080;11.960;2022-11-27T03:09:28;8.57;;;7.78;;
23362;SDS011;11853;48.080;11.960;2022-11-27T03:11:59;7.88;;;7.07;;
23362;SDS011;11853;48.080;11.960;2022-11-27T03:14:26;8.07;;;7.30;;
23362;SDS011;11853;48.080;11.960;2022-11-27T03:22:46;6.70;;;6.10;;
23362;SDS011;11853;48.080;11.960;2022-11-27T03:25:12;6.78;;;6.18;;
23362;SDS011;11853;48.080;11.960;2022-11-27T03:27:39;6.63;;;5.93;;
23362;SDS011;11853;48.080;11.960;2022-11-27T03:30:11;6.90;;;6.28;;
23362;SDS011;11853;48.080;11.960;2022-11-27T03:32:38;6.10;;;5.60;;
23362;SDS011;11853;48.080;11.960;2022-11-27T03:35:04;6.60;;;6.00;;
23362;SDS011;11853;48.080;11.960;2022-11-27T03:37:33;7.40;;;6.57;;
23362;SDS011;11853;48.080;11.960;2022-11-27T03:39:59;6.55;;;5.95;;
23362;SDS011;11853;48.080;11.960;2022-11-27T03:48:03;6.47;;;5.95;;
23362;SDS011;11853;48.080;11.960;2022-11-27T03:50:43;6.47;;;5.90;;
23362;SDS011;11853;48.080;11.960;2022-11-27T03:58:58;6.68;;;6.10;;
23362;SDS011;11853;48.080;11.960;2022-11-27T04:01:25;6.43;;;5.88;;
23362;SDS011;11853;48.080;11.960;2022-11-27T04:03:52;6.45;;;5.85;;
23362;SDS011;11853;48.080;11.960;2022-11-27T04:06:18;6.88;;;6.28;;
23362;SDS011;11853;48.080;11.960;2022-11-27T04:08:44;5.95;;;5.45;;
23362;SDS011;11853;48.080;11.960;2022-11-27T04:11:11;6.38;;;5.82;;
23362;SDS011;11853;48.080;11.960;2022-11-27T04:13:37;6.22;;;5.72;;
23362;SDS011;11853;48.080;11.960;2022-11-27T04:16:02;6.05;;;5.55;;
23362;SDS011;11853;48.080;11.960;2022-11-27T04:18:29;6.22;;;5.72;;
23362;SDS011;11853;48.080;11.960;2022-11-27T04:20:54;6.15;;;5.65;;
23362;SDS011;11853;48.080;11.960;2022-11-27T04:23:20;5.88;;;5.38;;
23362;SDS011;11853;48.080;11.960;2022-11-27T04:25:46;5.50;;;5.10;;
23362;SDS011;11853;48.080;11.960;2022-11-27T04:28:13;5.90;;;5.40;;
23362;SDS011;11853;48.080;11.960;2022-11-27T04:30:38;6.28;;;5.70;;
23362;SDS011;11853;48.080;11.960;2022-11-27T04:33:04;5.97;;;5.47;;
23362;SDS011;11853;48.080;11.960;2022-11-27T04:35:30;6.32;;;5.72;;
23362;SDS011;11853;48.080;11.960;2022-11-27T04:37:55;6.03;;;5.53;;
23362;SDS011;11853;48.080;11.960;2022-11-27T04:43:43;5.60;;;5.10;;
23362;SDS011;11853;48.080;11.960;2022-11-27T04:46:08;6.20;;;5.70;;
23362;SDS011;11853;48.080;11.960;2022-11-27T04:48:34;6.35;;;5.82;;
23362;SDS011;11853;48.080;11.960;2022-11-27T04:51:00;6.35;;;5.75;;
23362;SDS011;11853;48.080;11.960;2022-11-27T04:53:25;6.57;;;6.00;;
23362;SDS011;11853;48.080;11.960;2022-11-27T04:55:51;7.10;;;6.50;;
23362;SDS011;11853;48.080;11.960;2022-11-27T04:58:17;6.63;;;6.10;;
23362;SDS011;11853;48.080;11.960;2022-11-27T05:00:42;6.53;;;5.93;;
23362;SDS011;11853;48.080;11.960;2022-11-27T05:03:08;7.38;;;6.68;;
23362;SDS011;11853;48.080;11.960;2022-11-27T05:05:34;6.55;;;5.97;;
23362;SDS011;11853;48.080;11.960;2022-11-27T05:07:59;6.60;;;5.90;;
23362;SDS011;11853;48.080;11.960;2022-11-27T05:10:25;7.15;;;6.55;;
23362;SDS011;11853;48.080;11.960;2022-11-27T05:12:51;6.55;;;6.05;;
23362;SDS011;11853;48.080;11.960;2022-11-27T05:15:16;6.75;;;5.60;;
23362;SDS011;11853;48.080;11.960;2022-11-27T05:17:42;6.07;;;5.57;;
23362;SDS011;11853;48.080;11.960;2022-11-27T05:20:08;6.55;;;6.05;;
23362;SDS011;11853;48.080;11.960;2022-11-27T05:22:33;6.47;;;5.88;;
23362;SDS011;11853;48.080;11.960;2022-11-27T05:24:59;5.95;;;5.47;;
23362;SDS011;11853;48.080;11.960;2022-11-27T05:27:25;6.30;;;5.72;;
23362;SDS011;11853;48.080;11.960;2022-11-27T05:29:51;6.13;;;5.55;;
23362;SDS011;11853;48.080;11.960;2022-11-27T05:32:16;5.32;;;4.93;;
23362;SDS011;11853;48.080;11.960;2022-11-27T05:34:42;5.47;;;5.07;;
23362;SDS011;11853;48.080;11.960;2022-11-27T05:37:08;5.82;;;5.32;;
23362;SDS011;11853;48.080;11.960;2022-11-27T05:39:34;6.70;;;6.10;;
23362;SDS011;11853;48.080;11.960;2022-11-27T05:41:59;5.40;;;5.00;;
23362;SDS011;11853;48.080;11.960;2022-11-27T05:44:25;6.43;;;5.82;;
23362;SDS011;11853;48.080;11.960;2022-11-27T05:46:51;6.25;;;5.75;;
23362;SDS011;11853;48.080;11.960;2022-11-27T05:49:17;6.30;;;5.75;;
23362;SDS011;11853;48.080;11.960;2022-11-27T05:51:42;6.03;;;5.53;;
23362;SDS011;11853;48.080;11.960;2022-11-27T05:54:08;6.25;;;5.75;;
23362;SDS011;11853;48.080;11.960;2022-11-27T05:56:34;6.45;;;5.85;;
23362;SDS011;11853;48.080;11.960;2022-11-27T05:59:00;6.35;;;5.78;;
23362;SDS011;11853;48.080;11.960;2022-11-27T06:01:25;6.30;;;5.70;;
23362;SDS011;11853;48.080;11.960;2022-11-27T06:03:51;6.40;;;5.90;;
23362;SDS011;11853;48.080;11.960;2022-11-27T06:06:17;6.10;;;5.50;;
23362;SDS011;11853;48.080;11.960;2022-11-27T06:08:44;6.40;;;5.82;;
23362;SDS011;11853;48.080;11.960;2022-11-27T06:11:12;6.22;;;5.70;;
23362;SDS011;11853;48.080;11.960;2022-11-27T06:13:42;6.07;;;5.57;;
23362;SDS011;11853;48.080;11.960;2022-11-27T06:16:13;6.43;;;5.82;;
23362;SDS011;11853;48.080;11.960;2022-11-27T06:18:40;6.50;;;5.95;;
23362;SDS011;11853;48.080;11.960;2022-11-27T06:21:07;6.38;;;5.88;;
23362;SDS011;11853;48.080;11.960;2022-11-27T06:23:35;6.32;;;5.72;;
23362;SDS011;11853;48.080;11.960;2022-11-27T06:28:46;7.07;;;6.47;;
23362;SDS011;11853;48.080;11.960;2022-11-27T06:31:14;7.20;;;6.45;;
23362;SDS011;11853;48.080;11.960;2022-11-27T06:33:41;6.60;;;5.97;;
23362;SDS011;11853;48.080;11.960;2022-11-27T06:36:07;7.10;;;6.40;;
23362;SDS011;11853;48.080;11.960;2022-11-27T06:38:34;9.38;;;8.15;;
23362;SDS011;11853;48.080;11.960;2022-11-27T06:41:02;11.63;;;8.23;;
23362;SDS011;11853;48.080;11.960;2022-11-27T06:43:32;9.02;;;7.88;;
23362;SDS011;11853;48.080;11.960;2022-11-27T06:45:58;7.63;;;6.80;;
23362;SDS011;11853;48.080;11.960;2022-11-27T06:48:25;8.02;;;7.30;;
23362;SDS011;11853;48.080;11.960;2022-11-27T06:50:51;7.13;;;6.47;;
23362;SDS011;11853;48.080;11.960;2022-11-27T06:53:17;6.43;;;5.82;;
23362;SDS011;11853;48.080;11.960;2022-11-27T06:55:43;7.03;;;5.95;;
23362;SDS011;11853;48.080;11.960;2022-11-27T06:58:09;6.40;;;5.80;;
23362;SDS011;11853;48.080;11.960;2022-11-27T07:00:35;6.25;;;5.65;;
23362;SDS011;11853;48.080;11.960;2022-11-27T07:03:00;6.43;;;5.82;;
23362;SDS011;11853;48.080;11.960;2022-11-27T07:05:26;6.30;;;5.65;;
23362;SDS011;11853;48.080;11.960;2022-11-27T07:07:54;7.90;;;7.07;;
23362;SDS011;11853;48.080;11.960;2022-11-27T07:10:20;7.43;;;6.70;;
23362;SDS011;11853;48.080;11.960;2022-11-27T07:12:45;7.28;;;6.57;;
23362;SDS011;11853;48.080;11.960;2022-11-27T07:15:11;7.32;;;6.50;;
23362;SDS011;11853;48.080;11.960;2022-11-27T07:17:37;6.18;;;5.57;;
23362;SDS011;11853;48.080;11.960;2022-11-27T07:20:03;5.80;;;5.30;;
23362;SDS011;11853;48.080;11.960;2022-11-27T07:22:31;6.13;;;5.53;;
23362;SDS011;11853;48.080;11.960;2022-11-27T07:24:56;6.57;;;5.97;;
23362;SDS011;11853;48.080;11.960;2022-11-27T07:27:22;5.90;;;5.32;;
23362;SDS011;11853;48.080;11.960;2022-11-27T07:29:48;6.60;;;6.00;;
23362;SDS011;11853;48.080;11.960;2022-11-27T07:32:13;7.28;;;6.53;;
23362;SDS011;11853;48.080;11.960;2022-11-27T07:34:39;6.47;;;5.88;;
23362;SDS011;11853;48.080;11.960;2022-11-27T07:37:05;7.65;;;6.95;;
23362;SDS011;11853;48.080;11.960;2022-11-27T07:39:30;6.57;;;5.97;;
23362;SDS011;11853;48.080;11.960;2022-11-27T07:41:56;5.93;;;5.43;;
23362;SDS011;11853;48.080;11.960;2022-11-27T07:44:22;6.55;;;5.95;;
23362;SDS011;11853;48.080;11.960;2022-11-27T07:46:47;7.35;;;6.32;;
23362;SDS011;11853;48.080;11.960;2022-11-27T07:49:13;6.88;;;5.78;;
23362;SDS011;11853;48.080;11.960;2022-11-27T07:51:39;6.18;;;5.55;;
23362;SDS011;11853;48.080;11.960;2022-11-27T07:54:04;5.65;;;4.72;;
23362;SDS011;11853;48.080;11.960;2022-11-27T07:56:30;5.75;;;4.60;;
23362;SDS011;11853;48.080;11.960;2022-11-27T07:58:59;4.80;;;4.40;;
23362;SDS011;11853;48.080;11.960;2022-11-27T08:01:24;4.80;;;4.35;;
23362;SDS011;11853;48.080;11.960;2022-11-27T08:03:50;4.57;;;4.20;;
23362;SDS011;11853;48.080;11.960;2022-11-27T08:06:17;5.03;;;4.63;;
23362;SDS011;11853;48.080;11.960;2022-11-27T08:08:45;21.50;;;12.82;;
23362;SDS011;11853;48.080;11.960;2022-11-27T08:11:22;5.00;;;4.60;;
23362;SDS011;11853;48.080;11.960;2022-11-27T08:13:55;4.25;;;3.92;;
23362;SDS011;11853;48.080;11.960;2022-11-27T08:16:21;4.47;;;4.18;;
23362;SDS011;11853;48.080;11.960;2022-11-27T08:18:50;4.43;;;4.13;;
23362;SDS011;11853;48.080;11.960;2022-11-27T08:21:17;4.25;;;3.95;;
23362;SDS011;11853;48.080;11.960;2022-11-27T08:23:43;5.55;;;5.10;;
23362;SDS011;11853;48.080;11.960;2022-11-27T08:26:09;5.60;;;5.10;;
23362;SDS011;11853;48.080;11.960;2022-11-27T08:28:36;11.43;;;9.68;;
23362;SDS011;11853;48.080;11.960;2022-11-27T08:31:03;6.90;;;6.22;;
23362;SDS011;11853;48.080;11.960;2022-11-27T08:33:32;4.05;;;3.75;;
23362;SDS011;11853;48.080;11.960;2022-11-27T08:35:58;5.07;;;4.68;;
23362;SDS011;11853;48.080;11.960;2022-11-27T08:38:24;6.28;;;5.70;;
23362;SDS011;11853;48.080;11.960;2022-11-27T08:40:56;5.88;;;5.38;;
23362;SDS011;11853;48.080;11.960;2022-11-27T08:43:23;6.05;;;5.55;;
23362;SDS011;11853;48.080;11.960;2022-11-27T08:45:50;5.22;;;4.82;;
23362;SDS011;11853;48.080;11.960;2022-11-27T08:48:16;4.60;;;4.20;;
23362;SDS011;11853;48.080;11.960;2022-11-27T08:50:42;5.57;;;5.18;;
23362;SDS011;11853;48.080;11.960;2022-11-27T08:53:08;4.70;;;4.30;;
23362;SDS011;11853;48.080;11.960;2022-11-27T08:55:33;6.05;;;5.40;;
23362;SDS011;11853;48.080;11.960;2022-11-27T08:58:00;7.70;;;6.93;;
23362;SDS011;11853;48.080;11.960;2022-11-27T09:00:28;7.45;;;6.75;;
23362;SDS011;11853;48.080;11.960;2022-11-27T09:02:54;7.78;;;7.07;;
23362;SDS011;11853;48.080;11.960;2022-11-27T09:05:19;8.43;;;7.63;;
23362;SDS011;11853;48.080;11.960;2022-11-27T09:07:45;5.50;;;5.00;;
23362;SDS011;11853;48.080;11.960;2022-11-27T09:10:11;6.43;;;5.93;;
23362;SDS011;11853;48.080;11.960;2022-11-27T09:12:36;4.35;;;4.05;;
23362;SDS011;11853;48.080;11.960;2022-11-27T09:15:02;5.32;;;4.40;;
23362;SDS011;11853;48.080;11.960;2022-11-27T09:17:29;9.95;;;4.18;;
23362;SDS011;11853;48.080;11.960;2022-11-27T09:19:55;8.25;;;7.35;;
23362;SDS011;11853;48.080;11.960;2022-11-27T09:22:20;5.03;;;4.63;;
23362;SDS011;11853;48.080;11.960;2022-11-27T09:24:46;7.53;;;4.63;;
23362;SDS011;11853;48.080;11.960;2022-11-27T09:27:12;5.78;;;5.28;;
23362;SDS011;11853;48.080;11.960;2022-11-27T09:29:37;4.30;;;4.00;;
23362;SDS011;11853;48.080;11.960;2022-11-27T09:32:03;4.40;;;4.10;;
23362;SDS011;11853;48.080;11.960;2022-11-27T09:34:29;8.70;;;7.90;;
23362;SDS011;11853;48.080;11.960;2022-11-27T09:36:55;16.63;;;12.77;;
23362;SDS011;11853;48.080;11.960;2022-11-27T09:39:21;43.83;;;28.13;;
23362;SDS011;11853;48.080;11.960;2022-11-27T09:49:49;6.50;;;5.95;;
23362;SDS011;11853;48.080;11.960;2022-11-27T09:52:24;11.65;;;9.60;;
23362;SDS011;11853;48.080;11.960;2022-11-27T09:54:59;11.38;;;8.73;;
23362;SDS011;11853;48.080;11.960;2022-11-27T09:57:34;37.47;;;22.65;;
23362;SDS011;11853;48.080;11.960;2022-11-27T10:00:04;29.92;;;19.13;;
23362;SDS011;11853;48.080;11.960;2022-11-27T10:02:35;11.20;;;9.30;;
23362;SDS011;11853;48.080;11.960;2022-11-27T10:05:06;19.00;;;10.48;;
23362;SDS011;11853;48.080;11.960;2022-11-27T10:15:59;6.57;;;5.93;;
23362;SDS011;11853;48.080;11.960;2022-11-27T10:21:30;13.77;;;10.15;;
23362;SDS011;11853;48.080;11.960;2022-11-27T10:24:13;20.20;;;14.38;;
23362;SDS011;11853;48.080;11.960;2022-11-27T10:26:47;27.88;;;18.50;;
23362;SDS011;11853;48.080;11.960;2022-11-27T10:31:58;11.05;;;8.60;;
23362;SDS011;11853;48.080;11.960;2022-11-27T10:34:44;8.60;;;7.20;;
23362;SDS011;11853;48.080;11.960;2022-11-27T10:40:14;8.48;;;7.57;;
23362;SDS011;11853;48.080;11.960;2022-11-27T10:48:03;7.47;;;6.70;;
23362;SDS011;11853;48.080;11.960;2022-11-27T10:50:30;6.20;;;5.60;;
23362;SDS011;11853;48.080;11.960;2022-11-27T10:53:01;9.00;;;5.40;;
23362;SDS011;11853;48.080;11.960;2022-11-27T10:55:35;9.80;;;7.85;;
23362;SDS011;11853;48.080;11.960;2022-11-27T11:00:38;6.65;;;6.05;;
23362;SDS011;11853;48.080;11.960;2022-11-27T11:03:04;8.95;;;8.15;;
23362;SDS011;11853;48.080;11.960;2022-11-27T11:05:31;9.57;;;8.32;;
23362;SDS011;11853;48.080;11.960;2022-11-27T11:08:02;9.40;;;8.50;;
23362;SDS011;11853;48.080;11.960;2022-11-27T11:10:31;8.40;;;7.53;;
23362;SDS011;11853;48.080;11.960;2022-11-27T11:13:11;8.43;;;6.60;;
23362;SDS011;11853;48.080;11.960;2022-11-27T11:18:30;7.25;;;6.55;;
23362;SDS011;11853;48.080;11.960;2022-11-27T11:20:59;8.35;;;6.55;;
23362;SDS011;11853;48.080;11.960;2022-11-27T11:28:48;7.72;;;7.03;;
23362;SDS011;11853;48.080;11.960;2022-11-27T11:31:37;9.98;;;7.05;;
23362;SDS011;11853;48.080;11.960;2022-11-27T11:34:05;7.35;;;6.65;;
23362;SDS011;11853;48.080;11.960;2022-11-27T11:36:54;7.93;;;7.22;;
23362;SDS011;11853;48.080;11.960;2022-11-27T11:39:31;8.98;;;7.40;;
23362;SDS011;11853;48.080;11.960;2022-11-27T11:42:07;7.40;;;6.70;;
23362;SDS011;11853;48.080;11.960;2022-11-27T11:44:35;8.63;;;7.82;;
23362;SDS011;11853;48.080;11.960;2022-11-27T11:47:02;7.63;;;6.93;;
23362;SDS011;11853;48.080;11.960;2022-11-27T11:49:29;7.55;;;6.85;;
23362;SDS011;11853;48.080;11.960;2022-11-27T12:00:23;8.45;;;7.65;;
23362;SDS011;11853;48.080;11.960;2022-11-27T12:23:32;7.40;;;6.70;;
23362;SDS011;11853;48.080;11.960;2022-11-27T12:42:44;10.95;;;8.82;;
23362;SDS011;11853;48.080;11.960;2022-11-27T12:45:32;8.20;;;7.40;;
23362;SDS011;11853;48.080;11.960;2022-11-27T12:48:13;7.50;;;6.70;;
23362;SDS011;11853;48.080;11.960;2022-11-27T12:50:52;10.75;;;8.95;;
23362;SDS011;11853;48.080;11.960;2022-11-27T12:53:37;9.53;;;7.73;;
23362;SDS011;11853;48.080;11.960;2022-11-27T12:56:24;9.77;;;8.48;;
23362;SDS011;11853;48.080;11.960;2022-11-27T12:58:56;7.80;;;6.55;;
23362;SDS011;11853;48.080;11.960;2022-11-27T13:01:38;8.38;;;7.55;;
23362;SDS011;11853;48.080;11.960;2022-11-27T13:07:03;9.63;;;8.63;;
23362;SDS011;11853;48.080;11.960;2022-11-27T13:09:53;9.55;;;8.60;;
23362;SDS011;11853;48.080;11.960;2022-11-27T13:12:48;13.75;;;11.40;;
23362;SDS011;11853;48.080;11.960;2022-11-27T13:18:09;36.53;;;9.32;;
23362;SDS011;11853;48.080;11.960;2022-11-27T13:20:38;9.50;;;8.38;;
23362;SDS011;11853;48.080;11.960;2022-11-27T13:23:05;9.50;;;8.57;;
23362;SDS011;11853;48.080;11.960;2022-11-27T13:25:32;12.43;;;8.85;;
23362;SDS011;11853;48.080;11.960;2022-11-27T13:28:01;9.73;;;8.73;;
23362;SDS011;11853;48.080;11.960;2022-11-27T13:30:30;12.63;;;10.63;;
23362;SDS011;11853;48.080;11.960;2022-11-27T13:32:59;11.98;;;10.73;;
23362;SDS011;11853;48.080;11.960;2022-11-27T13:35:27;12.93;;;10.85;;
23362;SDS011;11853;48.080;11.960;2022-11-27T13:40:47;11.18;;;9.70;;
23362;SDS011;11853;48.080;11.960;2022-11-27T13:43:26;13.55;;;11.25;;
23362;SDS011;11853;48.080;11.960;2022-11-27T13:46:08;12.30;;;10.63;;
23362;SDS011;11853;48.080;11.960;2022-11-27T13:48:45;14.18;;;11.73;;
23362;SDS011;11853;48.080;11.960;2022-11-27T13:51:21;17.27;;;11.35;;
23362;SDS011;11853;48.080;11.960;2022-11-27T13:53:49;16.25;;;12.68;;
23362;SDS011;11853;48.080;11.960;2022-11-27T13:56:15;20.83;;;15.93;;
23362;SDS011;11853;48.080;11.960;2022-11-27T13:58:52;21.15;;;16.33;;
23362;SDS011;11853;48.080;11.960;2022-11-27T14:01:18;28.42;;;17.15;;
23362;SDS011;11853;48.080;11.960;2022-11-27T14:03:46;27.20;;;18.92;;
23362;SDS011;11853;48.080;11.960;2022-11-27T14:06:18;17.45;;;14.52;;
23362;SDS011;11853;48.080;11.960;2022-11-27T14:08:51;28.60;;;16.85;;
23362;SDS011;11853;48.080;11.960;2022-11-27T14:11:27;28.70;;;20.00;;
23362;SDS011;11853;48.080;11.960;2022-11-27T14:14:19;25.42;;;18.45;;
23362;SDS011;11853;48.080;11.960;2022-11-27T14:17:00;21.60;;;16.60;;
23362;SDS011;11853;48.080;11.960;2022-11-27T14:19:36;19.13;;;15.00;;
23362;SDS011;11853;48.080;11.960;2022-11-27T14:22:12;20.70;;;14.57;;
23362;SDS011;11853;48.080;11.960;2022-11-27T14:24:56;21.02;;;15.48;;
23362;SDS011;11853;48.080;11.960;2022-11-27T14:27:23;17.83;;;15.63;;
23362;SDS011;11853;48.080;11.960;2022-11-27T14:29:50;21.70;;;16.67;;
23362;SDS011;11853;48.080;11.960;2022-11-27T14:32:18;17.05;;;14.95;;
23362;SDS011;11853;48.080;11.960;2022-11-27T14:34:45;14.88;;;12.55;;
23362;SDS011;11853;48.080;11.960;2022-11-27T14:37:20;12.57;;;11.25;;
23362;SDS011;11853;48.080;11.960;2022-11-27T14:39:50;12.05;;;10.27;;
23362;SDS011;11853;48.080;11.960;2022-11-27T14:42:24;14.52;;;11.20;;
23362;SDS011;11853;48.080;11.960;2022-11-27T14:45:04;13.15;;;11.55;;
23362;SDS011;11853;48.080;11.960;2022-11-27T14:47:52;12.93;;;10.82;;
23362;SDS011;11853;48.080;11.960;2022-11-27T14:50:19;11.68;;;10.25;;
23362;SDS011;11853;48.080;11.960;2022-11-27T14:52:50;10.57;;;9.40;;
23362;SDS011;11853;48.080;11.960;2022-11-27T14:55:19;9.73;;;8.75;;
23362;SDS011;11853;48.080;11.960;2022-11-27T14:57:47;15.02;;;9.43;;
23362;SDS011;11853;48.080;11.960;2022-11-27T15:02:54;9.80;;;8.80;;
23362;SDS011;11853;48.080;11.960;2022-11-27T15:05:29;14.02;;;11.25;;
23362;SDS011;11853;48.080;11.960;2022-11-27T15:08:01;13.85;;;10.68;;
23362;SDS011;11853;48.080;11.960;2022-11-27T15:12:56;11.95;;;10.15;;
23362;SDS011;11853;48.080;11.960;2022-11-27T15:15:28;11.18;;;9.55;;
23362;SDS011;11853;48.080;11.960;2022-11-27T15:18:02;9.45;;;8.55;;
23362;SDS011;11853;48.080;11.960;2022-11-27T15:22:56;13.85;;;9.50;;
23362;SDS011;11853;48.080;11.960;2022-11-27T15:25:32;9.15;;;8.25;;
23362;SDS011;11853;48.080;11.960;2022-11-27T15:27:58;10.88;;;9.23;;
23362;SDS011;11853;48.080;11.960;2022-11-27T15:30:24;43.42;;;10.15;;
23362;SDS011;11853;48.080;11.960;2022-11-27T15:32:51;10.52;;;9.05;;
23362;SDS011;11853;48.080;11.960;2022-11-27T15:35:23;12.45;;;9.35;;
23362;SDS011;11853;48.080;11.960;2022-11-27T15:38:07;14.88;;;9.68;;
23362;SDS011;11853;48.080;11.960;2022-11-27T15:40:38;11.85;;;8.63;;
23362;SDS011;11853;48.080;11.960;2022-11-27T15:43:11;8.85;;;7.95;;
23362;SDS011;11853;48.080;11.960;2022-11-27T15:45:41;12.38;;;8.75;;
23362;SDS011;11853;48.080;11.960;2022-11-27T15:48:12;13.80;;;11.82;;
23362;SDS011;11853;48.080;11.960;2022-11-27T15:53:05;27.02;;;8.65;;
23362;SDS011;11853;48.080;11.960;2022-11-27T15:55:31;12.95;;;8.00;;
23362;SDS011;11853;48.080;11.960;2022-11-27T15:57:57;45.70;;;10.50;;
23362;SDS011;11853;48.080;11.960;2022-11-27T16:00:23;30.70;;;9.20;;
23362;SDS011;11853;48.080;11.960;2022-11-27T16:02:55;45.73;;;11.13;;
23362;SDS011;11853;48.080;11.960;2022-11-27T16:05:20;11.20;;;9.07;;
23362;SDS011;11853;48.080;11.960;2022-11-27T16:07:46;48.92;;;11.02;;
23362;SDS011;11853;48.080;11.960;2022-11-27T16:10:12;12.77;;;10.48;;
23362;SDS011;11853;48.080;11.960;2022-11-27T16:12:38;18.05;;;11.70;;
23362;SDS011;11853;48.080;11.960;2022-11-27T16:15:07;14.07;;;11.75;;
23362;SDS011;11853;48.080;11.960;2022-11-27T16:17:33;54.03;;;12.75;;
23362;SDS011;11853;48.080;11.960;2022-11-27T16:20:02;29.60;;;11.15;;
23362;SDS011;11853;48.080;11.960;2022-11-27T16:22:28;15.50;;;10.10;;
23362;SDS011;11853;48.080;11.960;2022-11-27T16:24:54;19.42;;;10.45;;
23362;SDS011;11853;48.080;11.960;2022-11-27T16:27:23;53.10;;;10.88;;
23362;SDS011;11853;48.080;11.960;2022-11-27T16:29:48;54.58;;;10.88;;
23362;SDS011;11853;48.080;11.960;2022-11-27T16:32:17;10.60;;;9.50;;
23362;SDS011;11853;48.080;11.960;2022-11-27T16:34:43;116.18;;;15.30;;
23362;SDS011;11853;48.080;11.960;2022-11-27T16:37:08;12.57;;;11.10;;
23362;SDS011;11853;48.080;11.960;2022-11-27T16:39:34;16.80;;;12.95;;
23362;SDS011;11853;48.080;11.960;2022-11-27T16:42:00;15.77;;;12.40;;
23362;SDS011;11853;48.080;11.960;2022-11-27T16:44:26;17.33;;;12.65;;
23362;SDS011;11853;48.080;11.960;2022-11-27T16:46:51;13.35;;;11.75;;
23362;SDS011;11853;48.080;11.960;2022-11-27T16:49:17;14.80;;;11.63;;
23362;SDS011;11853;48.080;11.960;2022-11-27T16:51:43;11.73;;;10.52;;
23362;SDS011;11853;48.080;11.960;2022-11-27T16:54:10;10.50;;;9.50;;
23362;SDS011;11853;48.080;11.960;2022-11-27T16:56:36;32.35;;;10.13;;
23362;SDS011;11853;48.080;11.960;2022-11-27T16:59:05;33.92;;;11.48;;
23362;SDS011;11853;48.080;11.960;2022-11-27T17:01:33;158.55;;;15.82;;
23362;SDS011;11853;48.080;11.960;2022-11-27T17:04:00;29.13;;;12.32;;